createdAt,value
2024-05-09T05:00:32.483Z,17.38
2024-05-09T05:03:14.033Z,23.55
2024-05-09T05:05:44.964Z,21.98
2024-05-09T05:08:17.660Z,20.85
2024-05-09T05:10:47.173Z,13.45
2024-05-09T05:13:24.774Z,15.13
2024-05-09T05:18:41.496Z,16.95
2024-05-09T05:31:55.344Z,18.17
2024-05-09T05:34:22.770Z,16.00
2024-05-09T05:36:50.997Z,16.48
2024-05-09T05:39:18.155Z,16.73
2024-05-09T05:41:48.702Z,16.98
2024-05-09T05:44:16.433Z,13.27
2024-05-09T05:46:47.949Z,13.05
2024-05-09T05:49:18.272Z,12.57
2024-05-09T05:51:54.426Z,11.88
2024-05-09T05:54:23.214Z,14.25
2024-05-09T06:02:19.556Z,13.10
2024-05-09T06:04:49.914Z,12.93
2024-05-09T06:07:18.511Z,12.52
2024-05-09T06:09:54.145Z,16.33
2024-05-09T06:12:43.442Z,15.38
2024-05-09T06:19:35.154Z,12.88
2024-05-09T06:22:46.780Z,13.38
2024-05-09T06:25:51.657Z,15.90
2024-05-09T06:34:57.766Z,11.57
2024-05-09T06:37:26.875Z,13.68
2024-05-09T06:42:28.892Z,9.85
2024-05-09T06:44:57.517Z,11.45
2024-05-09T06:47:25.187Z,9.88
2024-05-09T06:49:52.271Z,12.88
2024-05-09T06:52:20.167Z,8.70
2024-05-09T06:54:47.001Z,10.82
2024-05-09T06:57:14.494Z,12.07
2024-05-09T06:59:41.318Z,10.55
2024-05-09T07:02:08.995Z,13.23
2024-05-09T07:04:36.238Z,18.10
2024-05-09T07:07:04.704Z,7.93
2024-05-09T07:09:31.442Z,13.18
2024-05-09T07:11:59.029Z,10.20
2024-05-09T07:14:26.383Z,10.80
2024-05-09T07:16:54.011Z,8.25
2024-05-09T07:19:21.145Z,10.02
2024-05-09T07:21:48.557Z,10.57
2024-05-09T07:24:15.380Z,10.23
2024-05-09T07:26:42.834Z,9.93
2024-05-09T07:29:09.687Z,7.80
2024-05-09T07:31:39.539Z,9.70
2024-05-09T07:36:33.866Z,7.38
2024-05-09T07:39:01.116Z,9.68
2024-05-09T07:41:29.331Z,10.32
2024-05-09T07:43:57.727Z,12.00
2024-05-09T07:47:20.348Z,13.23
2024-05-09T07:50:55.116Z,10.43
2024-05-09T07:53:26.961Z,9.75
2024-05-09T07:54:50.676Z,11.77
2024-05-09T07:57:19.225Z,10.88
2024-05-09T07:59:46.748Z,12.27
2024-05-09T08:02:15.033Z,12.05
2024-05-09T08:04:42.763Z,12.05
2024-05-09T08:07:11.055Z,11.88
2024-05-09T08:09:40.083Z,13.15
2024-05-09T08:12:10.263Z,9.07
2024-05-09T08:14:38.261Z,8.05
2024-05-09T08:17:07.708Z,9.80
2024-05-09T08:19:37.952Z,10.05
2024-05-09T08:22:07.396Z,10.00
2024-05-09T08:24:35.911Z,10.77
2024-05-09T08:27:06.136Z,8.20
2024-05-09T08:29:33.277Z,8.27
2024-05-09T08:32:01.149Z,7.20
2024-05-09T08:34:28.791Z,8.20
2024-05-09T08:36:57.723Z,9.52
2024-05-09T08:39:26.758Z,7.82
2024-05-09T08:41:54.321Z,7.75
2024-05-09T08:44:22.472Z,8.52
2024-05-09T08:46:54.170Z,5.97
2024-05-09T08:49:23.358Z,8.48
2024-05-09T08:51:51.170Z,7.05
2024-05-09T08:54:20.116Z,7.40
2024-05-09T08:56:49.177Z,6.93
2024-05-09T08:59:22.658Z,8.25
2024-05-09T09:01:51.281Z,9.38
2024-05-09T09:04:19.224Z,8.55
2024-05-09T09:06:46.935Z,7.10
2024-05-09T09:09:14.973Z,5.72
2024-05-09T09:11:41.892Z,5.63
2024-05-09T09:14:10.841Z,7.65
2024-05-09T09:16:38.050Z,6.78
2024-05-09T09:19:06.466Z,6.43
2024-05-09T09:21:35.255Z,6.90
2024-05-09T09:24:03.307Z,8.43
2024-05-09T09:26:33.481Z,6.70
2024-05-09T09:29:04.792Z,5.95
2024-05-09T09:34:13.818Z,5.70
2024-05-09T09:36:43.361Z,6.43
2024-05-09T09:39:13.056Z,7.07
2024-05-09T09:41:41.910Z,5.47
2024-05-09T09:44:10.103Z,5.00
2024-05-09T09:46:38.257Z,6.22
2024-05-09T09:49:07.674Z,8.30
2024-05-09T09:51:36.334Z,8.10
2024-05-09T09:54:05.839Z,5.20
2024-05-09T09:56:34.445Z,7.15
2024-05-09T09:59:05.050Z,6.22
2024-05-09T10:01:34.828Z,6.20
2024-05-09T10:04:04.593Z,7.28
2024-05-09T10:06:37.151Z,8.82
2024-05-09T10:09:05.159Z,6.22
2024-05-09T10:11:34.900Z,9.30
2024-05-09T10:14:05.014Z,6.40
2024-05-09T10:16:32.688Z,8.55
2024-05-09T10:19:00.199Z,8.55
2024-05-09T10:21:27.712Z,8.07
2024-05-09T10:24:07.440Z,6.22
2024-05-09T10:26:36.540Z,8.73
2024-05-09T10:29:14.593Z,6.80
2024-05-09T10:31:42.849Z,7.68
2024-05-09T10:34:20.932Z,9.83
2024-05-09T10:36:55.219Z,7.03
2024-05-09T10:39:23.519Z,7.28
2024-05-09T10:41:51.036Z,6.28
2024-05-09T10:44:18.994Z,10.98
2024-05-09T10:46:46.527Z,6.72
2024-05-09T10:49:18.226Z,9.43
2024-05-09T10:51:47.724Z,5.85
2024-05-09T10:54:16.247Z,5.43
2024-05-09T10:56:43.498Z,9.95
2024-05-09T10:59:13.511Z,5.82
2024-05-09T11:01:41.148Z,7.47
2024-05-09T11:04:08.847Z,7.85
2024-05-09T11:06:38.704Z,7.75
2024-05-09T11:11:33.605Z,9.00
2024-05-09T11:14:00.704Z,9.32
2024-05-09T11:16:28.061Z,8.38
2024-05-09T11:18:57.217Z,8.85
2024-05-09T11:21:25.280Z,8.23
2024-05-09T11:23:52.789Z,10.55
2024-05-09T11:26:21.838Z,9.52
2024-05-09T11:28:51.033Z,7.20
2024-05-09T11:31:24.275Z,8.27
2024-05-09T11:33:54.837Z,7.78
2024-05-09T11:36:22.629Z,7.65
2024-05-09T11:38:49.612Z,8.65
2024-05-09T11:41:18.900Z,9.07
2024-05-09T11:43:46.008Z,12.20
2024-05-09T11:46:13.732Z,8.65
2024-05-09T11:48:41.211Z,7.43
2024-05-09T11:51:09.167Z,8.70
2024-05-09T11:53:36.074Z,8.60
2024-05-09T11:56:04.409Z,29.65
2024-05-09T11:58:34.947Z,7.38
2024-05-09T12:01:02.946Z,8.25
2024-05-09T12:03:30.873Z,7.53
2024-05-09T12:05:59.175Z,9.70
2024-05-09T12:08:26.581Z,5.30
2024-05-09T12:11:08.679Z,5.25
2024-05-09T12:13:47.333Z,6.97
2024-05-09T12:16:15.104Z,8.93
2024-05-09T12:18:42.367Z,8.00
2024-05-09T12:21:09.885Z,8.05
2024-05-09T12:23:36.935Z,6.13
2024-05-09T12:26:05.208Z,7.82
2024-05-09T12:28:32.759Z,6.15
2024-05-09T12:31:00.315Z,6.07
2024-05-09T12:33:27.301Z,7.25
2024-05-09T12:35:55.491Z,6.63
2024-05-09T12:38:22.465Z,4.57
2024-05-09T12:40:50.119Z,5.13
2024-05-09T12:43:18.643Z,6.65
2024-05-09T12:45:46.375Z,9.48
2024-05-09T12:48:14.344Z,8.63
2024-05-09T12:50:42.069Z,4.85
2024-05-09T12:53:10.018Z,6.07
2024-05-09T12:55:44.428Z,6.63
2024-05-09T12:58:22.887Z,6.28
2024-05-09T13:00:52.605Z,7.28
2024-05-09T13:03:20.359Z,5.45
2024-05-09T13:05:48.474Z,6.28
2024-05-09T13:08:26.916Z,4.25
2024-05-09T13:10:58.806Z,4.78
2024-05-09T13:13:26.390Z,6.80
2024-05-09T13:15:54.105Z,4.93
2024-05-09T13:18:24.242Z,4.57
2024-05-09T13:20:51.741Z,5.60
2024-05-09T13:23:18.488Z,7.13
2024-05-09T13:25:46.665Z,4.68
2024-05-09T13:28:13.790Z,5.32
2024-05-09T13:30:42.946Z,5.68
2024-05-09T13:33:12.000Z,5.78
2024-05-09T13:35:48.701Z,5.82
2024-05-09T13:38:21.495Z,7.40
2024-05-09T13:40:50.255Z,5.20
2024-05-09T13:43:18.474Z,6.13
2024-05-09T13:45:46.902Z,8.07
2024-05-09T13:48:14.188Z,4.45
2024-05-09T13:50:41.821Z,6.75
2024-05-09T13:53:09.178Z,6.78
2024-05-09T13:55:40.679Z,8.02
2024-05-09T13:58:08.717Z,8.00
2024-05-09T14:00:47.288Z,7.13
2024-05-09T14:03:18.704Z,9.73
2024-05-09T14:05:48.164Z,10.68
2024-05-09T14:08:15.988Z,8.13
2024-05-09T14:10:47.276Z,5.22
2024-05-09T14:13:14.952Z,6.32
2024-05-09T14:15:42.239Z,6.68
2024-05-09T14:18:13.566Z,6.40
2024-05-09T14:20:41.896Z,5.28
2024-05-09T14:23:10.084Z,6.38
2024-05-09T14:25:42.361Z,7.72
2024-05-09T14:28:11.971Z,4.13
2024-05-09T14:30:39.885Z,5.28
2024-05-09T14:33:08.936Z,6.40
2024-05-09T14:35:38.516Z,6.75
2024-05-09T14:38:07.913Z,8.05
2024-05-09T14:40:41.448Z,6.30
2024-05-09T14:43:12.857Z,9.40
2024-05-09T14:45:41.082Z,9.85
2024-05-09T14:48:10.018Z,9.77
2024-05-09T14:50:39.659Z,6.88
2024-05-09T14:53:11.218Z,7.07
2024-05-09T14:55:40.306Z,7.20
2024-05-09T14:58:13.379Z,5.03
2024-05-09T15:00:46.255Z,5.85
2024-05-09T15:03:18.659Z,6.05
2024-05-09T15:05:47.245Z,6.47
2024-05-09T15:08:16.711Z,5.25
2024-05-09T15:10:45.567Z,4.90
2024-05-09T15:13:16.232Z,6.75
2024-05-09T15:15:44.836Z,4.93
2024-05-09T15:18:13.669Z,8.27
2024-05-09T15:20:41.823Z,5.15
2024-05-09T15:23:09.500Z,7.20
2024-05-09T15:25:36.972Z,6.50
2024-05-09T15:28:08.173Z,7.13
2024-05-09T15:30:35.485Z,6.45
2024-05-09T15:33:07.145Z,5.75
2024-05-09T15:35:35.577Z,6.85
2024-05-09T15:38:03.791Z,7.05
2024-05-09T15:40:38.875Z,7.57
2024-05-09T15:43:10.537Z,7.32
2024-05-09T15:45:38.617Z,5.45
2024-05-09T15:48:08.201Z,7.75
2024-05-09T15:50:39.787Z,5.97
2024-05-09T15:53:10.256Z,8.82
2024-05-09T15:55:38.172Z,5.72
2024-05-09T15:58:07.110Z,8.88
2024-05-09T16:00:39.122Z,7.68
2024-05-09T16:03:10.800Z,4.00
2024-05-09T16:05:38.575Z,13.02
2024-05-09T16:08:07.016Z,6.72
2024-05-09T16:10:35.404Z,7.13
2024-05-09T16:13:03.429Z,7.65
2024-05-09T16:15:31.610Z,7.15
2024-05-09T16:17:58.713Z,10.15
2024-05-09T16:20:34.952Z,5.93
2024-05-09T16:23:08.140Z,5.93
2024-05-09T16:25:35.952Z,6.45
2024-05-09T16:28:06.293Z,7.35
2024-05-09T16:30:36.740Z,8.77
2024-05-09T16:33:05.248Z,6.82
2024-05-09T16:35:33.242Z,8.70
2024-05-09T16:38:02.609Z,6.55
2024-05-09T16:40:37.173Z,10.82
2024-05-09T16:43:08.190Z,6.55
2024-05-09T16:45:36.223Z,9.75
2024-05-09T16:48:03.234Z,7.40
2024-05-09T16:50:34.300Z,8.48
2024-05-09T16:53:04.338Z,5.63
2024-05-09T16:55:32.114Z,4.47
2024-05-09T16:57:59.137Z,8.10
2024-05-09T17:00:36.186Z,8.57
2024-05-09T17:03:15.993Z,7.15
2024-05-09T17:05:45.687Z,7.32
2024-05-09T17:08:15.545Z,5.82
2024-05-09T17:10:42.759Z,6.70
2024-05-09T17:13:10.407Z,5.03
2024-05-09T17:15:37.766Z,6.43
2024-05-09T17:18:10.174Z,8.07
2024-05-09T17:20:37.803Z,6.60
2024-05-09T17:23:15.315Z,7.05
2024-05-09T17:25:42.541Z,6.88
2024-05-09T17:28:11.103Z,5.85
2024-05-09T17:30:40.223Z,8.07
2024-05-09T17:33:10.386Z,7.28
2024-05-09T17:35:38.391Z,8.52
2024-05-09T17:38:06.697Z,8.95
2024-05-09T17:40:36.894Z,9.95
2024-05-09T17:43:06.781Z,5.88
2024-05-09T17:45:38.550Z,7.18
2024-05-09T17:48:06.690Z,6.80
2024-05-09T17:50:36.402Z,8.07
2024-05-09T17:53:06.363Z,6.22
2024-05-09T17:55:33.822Z,6.82
2024-05-09T17:58:01.434Z,10.57
2024-05-09T18:00:36.786Z,7.72
2024-05-09T18:03:08.555Z,7.82
2024-05-09T18:05:36.918Z,6.40
2024-05-09T18:08:06.038Z,6.60
2024-05-09T18:10:37.275Z,9.98
2024-05-09T18:13:10.804Z,10.68
2024-05-09T18:15:38.433Z,11.40
2024-05-09T18:18:06.696Z,9.18
2024-05-09T18:20:41.778Z,9.57
2024-05-09T18:23:16.767Z,10.10
2024-05-09T18:25:45.103Z,9.80
2024-05-09T18:28:12.145Z,7.57
2024-05-09T18:30:40.569Z,7.32
2024-05-09T18:33:10.256Z,8.27
2024-05-09T18:35:38.275Z,8.63
2024-05-09T18:38:05.587Z,7.72
2024-05-09T18:40:36.448Z,8.93
2024-05-09T18:43:07.155Z,9.32
2024-05-09T18:45:36.851Z,7.95
2024-05-09T18:48:05.875Z,8.25
2024-05-09T18:50:37.571Z,10.02
2024-05-09T18:53:08.471Z,9.65
2024-05-09T18:55:35.473Z,7.55
2024-05-09T18:58:03.907Z,9.40
2024-05-09T19:00:35.584Z,9.55
2024-05-09T19:03:12.030Z,9.55
2024-05-09T19:05:41.670Z,12.45
2024-05-09T19:08:09.920Z,9.02
2024-05-09T19:10:39.047Z,9.27
2024-05-09T19:15:40.830Z,10.57
2024-05-09T19:18:08.595Z,8.68
2024-05-09T19:20:36.720Z,9.55
2024-05-09T19:23:06.480Z,10.18
2024-05-09T19:25:36.011Z,11.35
2024-05-09T19:28:04.256Z,9.70
2024-05-09T19:30:38.780Z,9.35
2024-05-09T19:33:11.130Z,9.48
2024-05-09T19:35:39.260Z,9.65
2024-05-09T19:38:06.507Z,10.45
2024-05-09T19:40:35.255Z,10.27
2024-05-09T19:43:03.606Z,12.65
2024-05-09T19:45:33.737Z,9.27
2024-05-09T19:48:01.731Z,8.32
2024-05-09T19:50:37.348Z,9.25
2024-05-09T19:53:10.814Z,11.13
2024-05-09T19:55:38.183Z,10.75
2024-05-09T19:58:07.129Z,11.73
2024-05-09T20:00:41.034Z,10.25
2024-05-09T20:03:11.891Z,10.27
2024-05-09T20:05:39.529Z,11.68
2024-05-09T20:08:07.066Z,11.90
2024-05-09T20:10:35.983Z,9.25
2024-05-09T20:13:08.557Z,9.48
2024-05-09T20:15:36.865Z,8.65
2024-05-09T20:18:05.276Z,10.52
2024-05-09T20:20:38.303Z,11.30
2024-05-09T20:23:09.886Z,8.90
2024-05-09T20:25:36.941Z,10.93
2024-05-09T20:28:04.828Z,9.40
